createdAt,value
2018-07-28T00:00:02.065Z,22.5
2018-07-28T00:05:01.994Z,22.5
2018-07-28T00:10:01.808Z,22.5
2018-07-28T00:15:02.186Z,22.5
2018-07-28T00:20:01.613Z,22.4
2018-07-28T00:25:01.452Z,22.4
2018-07-28T00:30:02.635Z,22.4
2018-07-28T00:35:01.883Z,22.3
2018-07-28T00:40:01.358Z,22.3
2018-07-28T00:45:01.654Z,22.3
2018-07-28T00:50:02.164Z,22.3
2018-07-28T00:55:01.520Z,22.3
2018-07-28T01:00:01.876Z,22.3
2018-07-28T01:05:01.980Z,22.3
2018-07-28T01:10:01.542Z,22.3
2018-07-28T01:15:01.410Z,22.2
2018-07-28T01:20:01.336Z,22.3
2018-07-28T01:25:02.324Z,22.2
2018-07-28T01:30:01.255Z,22.2
2018-07-28T01:35:02.112Z,22.2
2018-07-28T01:40:02.412Z,22.2
2018-07-28T01:45:01.628Z,22.2
2018-07-28T01:50:01.334Z,22.2
2018-07-28T01:55:01.522Z,22.1
2018-07-28T02:00:01.998Z,22.1
2018-07-28T02:05:01.636Z,22.1
2018-07-28T02:10:01.584Z,22.1
2018-07-28T02:15:02.109Z,22.1
2018-07-28T02:20:01.953Z,22.1
2018-07-28T02:25:01.303Z,22
2018-07-28T02:30:01.861Z,22
2018-07-28T02:35:01.810Z,22
2018-07-28T02:40:01.524Z,22
2018-07-28T02:45:02.062Z,22
2018-07-28T02:50:01.586Z,21.9
2018-07-28T02:55:01.917Z,22
2018-07-28T03:00:01.585Z,21.9
2018-07-28T03:05:01.812Z,21.9
2018-07-28T03:10:02.030Z,21.9
2018-07-28T03:15:01.579Z,21.9
2018-07-28T03:20:02.447Z,21.9
2018-07-28T03:25:01.230Z,21.9
2018-07-28T03:30:01.816Z,21.9
2018-07-28T03:35:01.889Z,21.8
2018-07-28T03:40:02.081Z,21.8
2018-07-28T03:45:01.459Z,21.9
2018-07-28T03:50:01.801Z,21.9
2018-07-28T03:55:02.393Z,21.8
2018-07-28T04:00:01.315Z,21.9
2018-07-28T04:05:01.875Z,21.9
2018-07-28T04:10:01.185Z,21.9
2018-07-28T04:15:01.985Z,22
2018-07-28T04:20:01.469Z,22
2018-07-28T04:25:01.431Z,22.1
2018-07-28T04:30:02.233Z,22.1
2018-07-28T04:35:01.828Z,22.2
2018-07-28T04:40:01.975Z,22.2
2018-07-28T04:45:01.720Z,22.7
2018-07-28T04:50:02.249Z,23.2
2018-07-28T04:55:01.461Z,23.6
2018-07-28T05:00:01.905Z,24
2018-07-28T05:05:01.899Z,23.9
2018-07-28T05:10:01.866Z,23.8
2018-07-28T05:15:01.852Z,23.7
2018-07-28T05:20:01.244Z,23.7
2018-07-28T05:25:01.958Z,23.7
2018-07-28T05:30:01.261Z,23.6
2018-07-28T05:35:01.874Z,23.5
2018-07-28T05:40:02.355Z,23.5
2018-07-28T05:45:01.382Z,23.7
2018-07-28T05:50:02.018Z,23.8
2018-07-28T05:55:01.743Z,23.9
2018-07-28T06:00:01.360Z,23.9
2018-07-28T06:05:01.323Z,24
2018-07-28T06:10:02.099Z,24.1
2018-07-28T06:15:02.051Z,24.1
2018-07-28T06:20:01.460Z,24.3
2018-07-28T06:25:01.754Z,24.5
2018-07-28T06:30:01.462Z,24.7
2018-07-28T06:35:02.064Z,24.8
2018-07-28T06:40:01.973Z,24.9
2018-07-28T06:45:01.780Z,25
2018-07-28T06:50:01.742Z,25
2018-07-28T06:55:02.141Z,25.2
2018-07-28T07:00:01.487Z,25.3
2018-07-28T07:05:01.543Z,25.3
2018-07-28T07:10:01.992Z,25.7
2018-07-28T07:15:01.411Z,26
2018-07-28T07:20:02.365Z,26.1
2018-07-28T07:25:01.386Z,26.4
2018-07-28T07:30:02.036Z,26.5
2018-07-28T07:35:01.922Z,26.7
2018-07-28T07:40:02.185Z,27
2018-07-28T07:45:02.084Z,27
2018-07-28T07:50:01.788Z,27.6
2018-07-28T07:55:01.639Z,27.8
2018-07-28T08:00:01.797Z,27.9
2018-07-28T08:05:01.547Z,28.1
2018-07-28T08:10:01.569Z,28.2
2018-07-28T08:15:02.044Z,28.1
2018-07-28T08:20:01.211Z,28.1
2018-07-28T08:25:01.307Z,28.7
2018-07-28T08:30:01.929Z,28.7
2018-07-28T08:35:01.584Z,29.2
2018-07-28T08:40:01.587Z,29.7
2018-07-28T08:45:01.741Z,29.9
2018-07-28T08:50:01.554Z,30
2018-07-28T08:55:01.936Z,30.2
2018-07-28T09:00:01.653Z,30.8
2018-07-28T09:05:01.586Z,30.9
2018-07-28T09:10:01.871Z,30.6
2018-07-28T09:15:01.671Z,30.7
2018-07-28T09:20:02.114Z,30.8
2018-07-28T09:25:01.646Z,31.4
2018-07-28T09:30:02.563Z,31.7
2018-07-28T09:35:01.201Z,31.9
2018-07-28T09:40:01.186Z,32.1
2018-07-28T09:45:01.241Z,32.4
2018-07-28T09:50:02.129Z,32.4
2018-07-28T09:55:01.505Z,32.5
2018-07-28T10:00:02.029Z,32.8
2018-07-28T10:05:02.017Z,33
2018-07-28T10:10:01.554Z,32.7
2018-07-28T10:15:01.501Z,33
2018-07-28T10:20:01.388Z,33.2
2018-07-28T10:25:01.685Z,33.2
2018-07-28T10:30:02.206Z,33.2
2018-07-28T10:35:01.856Z,33.6
2018-07-28T10:40:02.960Z,34.2
2018-07-28T10:45:01.732Z,34.5
2018-07-28T10:50:01.513Z,34
2018-07-28T10:55:01.959Z,34
2018-07-28T11:00:01.721Z,34
2018-07-28T11:05:01.236Z,34.1
2018-07-28T11:10:01.681Z,33.2
2018-07-28T11:15:01.839Z,33.1
2018-07-28T11:20:01.452Z,33.5
2018-07-28T11:25:01.808Z,34.1
2018-07-28T11:30:01.459Z,34.2
2018-07-28T11:35:02.006Z,34.3
2018-07-28T11:40:01.940Z,33.8
2018-07-28T11:45:02.534Z,33.9
2018-07-28T11:50:01.394Z,34.4
2018-07-28T11:55:01.837Z,33.5
2018-07-28T12:00:02.071Z,33.4
2018-07-28T12:05:02.462Z,33.6
2018-07-28T12:10:01.376Z,33.9
2018-07-28T12:15:01.600Z,34
2018-07-28T12:20:01.370Z,34.1
2018-07-28T12:25:02.271Z,34.1
2018-07-28T12:30:01.606Z,34.7
2018-07-28T12:35:02.238Z,35.1
2018-07-28T12:40:01.205Z,35.6
2018-07-28T12:45:01.792Z,35.5
2018-07-28T12:50:01.900Z,35.6
2018-07-28T12:55:01.901Z,35.8
2018-07-28T13:00:01.681Z,35.9
2018-07-28T13:05:02.169Z,35.6
2018-07-28T13:10:02.177Z,35
2018-07-28T13:15:02.602Z,35.3
2018-07-28T13:20:01.477Z,34.6
2018-07-28T13:25:01.184Z,35
2018-07-28T13:30:01.702Z,35.2
2018-07-28T13:35:02.261Z,35
2018-07-28T13:40:01.874Z,34.6
2018-07-28T13:45:01.447Z,34
2018-07-28T13:50:01.686Z,33.4
2018-07-28T13:55:01.549Z,33.1
2018-07-28T14:00:01.829Z,33.5
2018-07-28T14:05:01.918Z,33.4
2018-07-28T14:10:01.948Z,33.4
2018-07-28T14:15:01.944Z,33.9
2018-07-28T14:20:01.875Z,33.9
2018-07-28T14:25:02.117Z,33.3
2018-07-28T14:30:01.554Z,33.1
2018-07-28T14:35:02.121Z,33
2018-07-28T14:40:02.056Z,32.7
2018-07-28T14:45:01.658Z,32.6
2018-07-28T14:50:01.804Z,32.4
2018-07-28T14:55:01.841Z,32.2
2018-07-28T15:00:02.476Z,31.9
2018-07-28T15:05:01.428Z,30
2018-07-28T15:10:01.610Z,29.2
2018-07-28T15:15:01.843Z,26.5
2018-07-28T15:20:02.250Z,25.3
2018-07-28T15:25:01.730Z,24.5
2018-07-28T15:30:01.736Z,23.9
2018-07-28T15:35:01.563Z,23.2
2018-07-28T15:40:02.216Z,23
2018-07-28T15:45:01.645Z,22.8
2018-07-28T15:50:01.741Z,22.7
2018-07-28T15:55:01.860Z,22.6
2018-07-28T16:00:01.419Z,22.5
2018-07-28T16:05:01.460Z,22.6
2018-07-28T16:10:01.926Z,22.6
2018-07-28T16:15:01.753Z,22.6
2018-07-28T16:20:01.505Z,22.6
2018-07-28T16:25:01.910Z,22.6
2018-07-28T16:30:01.692Z,22.3
2018-07-28T16:35:01.441Z,22.2
2018-07-28T16:40:01.352Z,22.1
2018-07-28T16:45:02.118Z,22.1
2018-07-28T16:50:02.191Z,22.1
2018-07-28T16:55:01.888Z,22.2
2018-07-28T17:00:01.700Z,22.3
2018-07-28T17:05:02.471Z,22.2
2018-07-28T17:10:01.191Z,22
2018-07-28T17:15:01.672Z,22
2018-07-28T17:20:01.597Z,22.1
2018-07-28T17:25:02.102Z,22.2
2018-07-28T17:30:01.433Z,22.1
2018-07-28T17:35:01.253Z,22.2
2018-07-28T17:40:02.045Z,22.2
2018-07-28T17:45:01.860Z,22.2
2018-07-28T17:50:01.864Z,22.2
2018-07-28T17:55:01.947Z,22.3
2018-07-28T18:00:01.720Z,22.1
2018-07-28T18:05:01.560Z,22.1
2018-07-28T18:10:01.517Z,22.2
2018-07-28T18:15:02.296Z,22.2
2018-07-28T18:20:01.481Z,22.2
2018-07-28T18:25:02.174Z,22.2
2018-07-28T18:30:01.385Z,22.1
2018-07-28T18:35:02.248Z,22.2
2018-07-28T18:40:01.151Z,22.1
2018-07-28T18:45:01.746Z,22.1
2018-07-28T18:50:02.008Z,22.1
2018-07-28T18:55:02.385Z,22.1
2018-07-28T19:00:02.065Z,22.1
2018-07-28T19:05:01.301Z,22.1
2018-07-28T19:10:01.338Z,22.1
2018-07-28T19:15:01.846Z,22.1
2018-07-28T19:20:02.491Z,22
2018-07-28T19:25:01.556Z,22
2018-07-28T19:30:01.935Z,22
2018-07-28T19:35:01.809Z,22
2018-07-28T19:40:01.699Z,21.9
2018-07-28T19:45:02.209Z,21.9
2018-07-28T19:50:01.567Z,21.9
2018-07-28T19:55:01.380Z,21.8
2018-07-28T20:00:02.011Z,21.7
2018-07-28T20:05:01.604Z,21.6
2018-07-28T20:10:02.230Z,21.6
2018-07-28T20:20:01.925Z,21.7
2018-07-28T20:25:02.160Z,21.7
2018-07-28T20:30:01.567Z,21.7
2018-07-28T20:35:01.777Z,21.6
2018-07-28T20:40:01.509Z,21.6
2018-07-28T20:45:01.201Z,21.5
2018-07-28T20:50:02.429Z,21.4
2018-07-28T20:55:01.772Z,21.4
2018-07-28T21:00:01.480Z,21.4
2018-07-28T21:05:01.796Z,21.4
2018-07-28T21:10:01.816Z,21.4
2018-07-28T21:15:02.078Z,21.3
2018-07-28T21:20:02.245Z,21.3
2018-07-28T21:25:01.601Z,21.2
2018-07-28T21:30:02.400Z,21.2
2018-07-28T21:35:01.766Z,21.1
2018-07-28T21:40:01.766Z,21.1
2018-07-28T21:45:01.507Z,21.1
2018-07-28T21:50:01.806Z,21.1
2018-07-28T21:55:01.888Z,21
2018-07-28T22:00:01.265Z,21
2018-07-28T22:05:02.093Z,21
2018-07-28T22:10:01.689Z,21
2018-07-28T22:15:02.101Z,21
2018-07-28T22:20:01.586Z,20.9
2018-07-28T22:25:01.623Z,21
2018-07-28T22:30:01.544Z,21
2018-07-28T22:35:01.800Z,20.9
2018-07-28T22:40:02.078Z,20.9
2018-07-28T22:45:02.026Z,20.9
2018-07-28T22:50:01.769Z,20.9
2018-07-28T22:55:02.125Z,20.9
2018-07-28T23:00:02.000Z,20.9
2018-07-28T23:05:01.667Z,20.9
2018-07-28T23:10:01.575Z,20.9
2018-07-28T23:15:02.336Z,20.9
2018-07-28T23:20:01.562Z,20.9
2018-07-28T23:25:01.899Z,20.9
2018-07-28T23:30:01.872Z,20.9
2018-07-28T23:35:02.331Z,20.9
2018-07-28T23:40:02.301Z,21
2018-07-28T23:45:01.807Z,21
2018-07-28T23:50:02.427Z,21
2018-07-28T23:55:01.454Z,20.9
